Agate, Colorado
Current Conditions -  °F | °C
As of 4:55 PM on Saturday 22 Nov 2014 (Local Time) from KLIC Reporting Station
Clear Clear  
Wind Chill: 40°   Ceiling: Unl
Heat Index: 40°   Visibility: 10mi
Dew Point: 14°   Wind: 3mph
Humidity: 35%   Direction: 110°ESE
Pressure: 29.57"   Gusts: NA
Location:  39.46°N, 103.94°W
Report Text: KLIC 222355Z AUTO 11003KT 10SM CLR 04/M10 A2957 RMK AO2 SLP026 T00441100 10172 20044 58008
Loading
Personal Weather Stations






























Interactive Weather Map New forecast layout! Learn more

10-Day Weather Forecast

Advertisements
Track Severe Weather on mobile